createdAt,value
2024-01-07T00:02:53.478Z,84.08
2024-01-07T00:08:13.982Z,83.98
2024-01-07T00:13:34.667Z,83.96
2024-01-07T00:18:55.419Z,83.95
2024-01-07T00:24:16.121Z,84.04
2024-01-07T00:29:36.709Z,83.93
2024-01-07T00:34:57.421Z,83.92
2024-01-07T00:40:18.206Z,83.91
2024-01-07T00:45:38.595Z,83.97
2024-01-07T00:50:59.199Z,83.96
2024-01-07T00:56:19.807Z,84.07
2024-01-07T01:01:40.603Z,83.92
2024-01-07T01:07:01.086Z,83.99
2024-01-07T01:12:21.614Z,84.09
2024-01-07T01:17:42.310Z,84.04
2024-01-07T01:23:02.956Z,83.87
2024-01-07T01:28:23.193Z,83.94
2024-01-07T01:33:44.043Z,83.95
2024-01-07T01:39:04.540Z,83.95
2024-01-07T01:44:24.984Z,83.93
2024-01-07T01:49:46.989Z,83.94
2024-01-07T01:55:08.004Z,84.00
2024-01-07T02:00:28.841Z,83.95
2024-01-07T02:05:50.903Z,84.00
2024-01-07T02:11:22.246Z,83.96
2024-01-07T02:16:42.744Z,83.80
2024-01-07T02:22:04.569Z,84.10
2024-01-07T02:27:25.334Z,84.17
2024-01-07T02:32:47.216Z,84.22
2024-01-07T02:38:07.421Z,84.20
2024-01-07T02:43:28.342Z,84.21
2024-01-07T02:48:48.915Z,84.23
2024-01-07T02:54:09.648Z,84.21
2024-01-07T02:59:30.083Z,84.18
2024-01-07T03:04:50.678Z,84.42
2024-01-07T03:10:11.446Z,84.33
2024-01-07T03:15:33.082Z,84.49
2024-01-07T03:20:53.574Z,84.67
2024-01-07T03:26:14.721Z,85.00
2024-01-07T03:31:35.444Z,85.11
2024-01-07T03:36:56.437Z,84.90
2024-01-07T03:42:16.893Z,84.92
2024-01-07T03:47:37.413Z,84.80
2024-01-07T03:52:57.759Z,84.20
2024-01-07T03:58:18.617Z,83.93
2024-01-07T04:03:39.412Z,83.85
2024-01-07T04:09:00.219Z,84.22
2024-01-07T04:14:20.860Z,84.31
2024-01-07T04:19:41.520Z,84.12
2024-01-07T04:25:02.147Z,83.73
2024-01-07T04:30:22.562Z,83.61
2024-01-07T04:35:44.769Z,83.73
2024-01-07T04:41:08.285Z,83.65
2024-01-07T04:46:29.084Z,83.66
2024-01-07T04:51:50.008Z,83.63
2024-01-07T04:57:10.778Z,83.51
2024-01-07T05:02:31.309Z,83.53
2024-01-07T05:07:52.192Z,83.57
2024-01-07T05:13:13.087Z,83.47
2024-01-07T05:18:33.764Z,83.45
2024-01-07T05:23:54.201Z,83.48
2024-01-07T05:29:14.842Z,83.59
2024-01-07T05:34:35.688Z,83.51
2024-01-07T05:39:56.210Z,83.41
2024-01-07T05:45:16.833Z,83.45
2024-01-07T05:50:37.497Z,83.47
2024-01-07T05:55:57.978Z,83.49
2024-01-07T06:01:21.980Z,83.56
2024-01-07T06:06:42.485Z,83.81
2024-01-07T06:12:03.159Z,83.45
2024-01-07T06:17:23.831Z,83.41
2024-01-07T06:22:44.474Z,83.41
2024-01-07T06:28:05.246Z,83.40
2024-01-07T06:33:26.217Z,83.46
2024-01-07T06:38:47.129Z,83.45
2024-01-07T06:44:07.770Z,83.35
2024-01-07T06:49:28.700Z,83.35
2024-01-07T06:54:49.198Z,83.35
2024-01-07T07:00:10.573Z,83.47
2024-01-07T07:05:31.393Z,83.53
2024-01-07T07:10:52.042Z,83.48
2024-01-07T07:16:13.406Z,83.42
2024-01-07T07:21:34.404Z,83.46
2024-01-07T07:26:54.894Z,83.49
2024-01-07T07:32:15.860Z,83.33
2024-01-07T07:37:36.336Z,83.35
2024-01-07T07:42:57.097Z,83.19
2024-01-07T07:48:18.137Z,83.14
2024-01-07T07:53:40.907Z,83.22
2024-01-07T07:59:01.646Z,83.20
2024-01-07T08:04:22.191Z,83.21
2024-01-07T08:09:42.682Z,83.14
2024-01-07T08:15:03.616Z,83.04
2024-01-07T08:20:24.562Z,82.96
2024-01-07T08:25:46.482Z,82.92
2024-01-07T08:31:08.214Z,82.73
2024-01-07T08:36:28.961Z,82.73
2024-01-07T08:41:49.758Z,82.50
2024-01-07T08:47:10.441Z,82.46
2024-01-07T08:52:31.211Z,82.41
2024-01-07T08:57:52.965Z,82.58
2024-01-07T09:03:13.699Z,82.68
2024-01-07T09:08:35.369Z,83.01
2024-01-07T09:13:55.977Z,83.11
2024-01-07T09:19:17.023Z,82.48
2024-01-07T09:24:37.352Z,82.23
2024-01-07T09:29:57.904Z,81.92
2024-01-07T09:35:18.465Z,81.69
2024-01-07T09:40:40.629Z,81.75
2024-01-07T09:46:01.317Z,81.75
2024-01-07T09:51:24.115Z,81.71
2024-01-07T09:56:56.440Z,81.06
2024-01-07T10:02:17.919Z,80.63
2024-01-07T10:07:39.288Z,80.06
2024-01-07T10:12:59.888Z,79.51
2024-01-07T10:18:20.824Z,80.53
2024-01-07T10:23:41.515Z,80.81
2024-01-07T10:29:02.421Z,78.73
2024-01-07T10:34:24.920Z,77.32
2024-01-07T10:39:45.782Z,76.35
2024-01-07T10:45:06.981Z,75.25
2024-01-07T10:50:28.473Z,75.44
2024-01-07T10:56:01.070Z,75.20
2024-01-07T11:01:25.092Z,72.40
2024-01-07T11:07:12.177Z,70.58
2024-01-07T11:12:33.498Z,68.62
2024-01-07T11:17:54.289Z,67.21
2024-01-07T11:23:29.155Z,66.20
2024-01-07T11:28:52.878Z,67.03
2024-01-07T11:34:50.924Z,63.63
2024-01-07T11:40:12.940Z,62.28
2024-01-07T11:45:33.480Z,62.22
2024-01-07T11:50:56.174Z,63.70
2024-01-07T11:56:17.612Z,64.07
2024-01-07T12:01:38.372Z,63.70
2024-01-07T12:06:59.993Z,63.10
2024-01-07T12:12:20.790Z,63.23
2024-01-07T12:17:42.158Z,63.47
2024-01-07T12:23:09.813Z,64.60
2024-01-07T12:28:30.627Z,64.69
2024-01-07T12:33:52.430Z,63.85
2024-01-07T12:39:12.938Z,63.90
2024-01-07T12:44:33.644Z,63.71
2024-01-07T12:49:54.257Z,62.36
2024-01-07T12:55:15.123Z,62.65
2024-01-07T13:00:36.566Z,63.76
2024-01-07T13:05:57.250Z,65.33
2024-01-07T13:11:18.264Z,68.60
2024-01-07T13:16:38.480Z,67.42
2024-01-07T13:22:02.753Z,67.84
2024-01-07T13:27:24.679Z,71.44
2024-01-07T13:32:45.357Z,74.07
2024-01-07T13:38:05.846Z,75.98
2024-01-07T13:43:28.663Z,77.44
2024-01-07T13:48:49.500Z,78.55
2024-01-07T13:54:14.179Z,79.58
2024-01-07T13:59:34.518Z,80.37
2024-01-07T14:04:54.921Z,80.78
2024-01-07T14:10:16.499Z,81.33
2024-01-07T14:15:38.024Z,81.39
2024-01-07T14:20:58.804Z,81.79
2024-01-07T14:26:24.063Z,82.27
2024-01-07T14:31:46.271Z,82.63
2024-01-07T14:37:06.949Z,83.16
2024-01-07T14:42:27.296Z,83.32
2024-01-07T14:47:47.654Z,83.35
2024-01-07T14:53:08.030Z,83.71
2024-01-07T14:58:28.352Z,83.93
2024-01-07T15:03:48.932Z,84.43
2024-01-07T15:09:09.545Z,84.38
2024-01-07T15:14:30.163Z,84.34
2024-01-07T15:19:50.509Z,84.25
2024-01-07T15:25:11.492Z,84.53
2024-01-07T15:30:32.270Z,84.71
2024-01-07T15:35:53.254Z,84.67
2024-01-07T15:41:13.874Z,84.65
2024-01-07T15:46:34.285Z,84.77
2024-01-07T15:51:55.184Z,84.75
2024-01-07T15:57:15.520Z,84.84
2024-01-07T16:02:36.065Z,84.81
2024-01-07T16:07:56.580Z,84.76
2024-01-07T16:13:17.179Z,84.74
2024-01-07T16:18:38.311Z,84.68
2024-01-07T16:23:59.035Z,84.67
2024-01-07T16:29:22.028Z,84.65
2024-01-07T16:34:42.849Z,84.79
2024-01-07T16:40:04.745Z,84.74
2024-01-07T16:45:25.174Z,84.73
2024-01-07T16:50:46.092Z,84.96
2024-01-07T16:56:07.673Z,85.08
2024-01-07T17:01:28.371Z,85.29
2024-01-07T17:06:49.762Z,85.17
2024-01-07T17:12:10.758Z,84.83
2024-01-07T17:17:31.499Z,84.67
2024-01-07T17:22:53.368Z,84.41
2024-01-07T17:28:14.654Z,84.46
2024-01-07T17:33:35.516Z,84.43
2024-01-07T17:38:56.720Z,84.33
2024-01-07T17:44:17.350Z,84.19
2024-01-07T17:49:37.738Z,84.52
2024-01-07T17:54:58.128Z,84.42
2024-01-07T18:00:18.967Z,84.41
2024-01-07T18:05:40.487Z,84.01
2024-01-07T18:11:01.939Z,83.64
2024-01-07T18:16:22.791Z,83.55
2024-01-07T18:21:45.853Z,83.52
2024-01-07T18:27:07.950Z,83.37
2024-01-07T18:32:28.554Z,83.61
2024-01-07T18:37:51.460Z,83.92
2024-01-07T18:43:11.750Z,83.92
2024-01-07T18:48:32.673Z,84.00
2024-01-07T18:53:52.974Z,83.90
2024-01-07T18:59:13.708Z,83.82
2024-01-07T19:04:34.745Z,83.83
2024-01-07T19:09:55.507Z,83.81
2024-01-07T19:15:17.440Z,83.55
2024-01-07T19:20:38.997Z,83.66
2024-01-07T19:26:01.637Z,83.61
2024-01-07T19:31:25.164Z,83.60
2024-01-07T19:36:46.249Z,83.52
2024-01-07T19:42:08.461Z,83.30
2024-01-07T19:47:29.375Z,83.23
2024-01-07T19:52:50.213Z,83.06
2024-01-07T19:58:14.615Z,82.85
2024-01-07T20:03:37.656Z,82.54
2024-01-07T20:08:58.041Z,82.73
2024-01-07T20:14:18.684Z,82.75
2024-01-07T20:19:40.889Z,82.71
2024-01-07T20:25:01.524Z,82.67
2024-01-07T20:30:22.308Z,82.72
2024-01-07T20:35:44.157Z,82.64
2024-01-07T20:41:05.152Z,82.54
2024-01-07T20:46:25.901Z,82.52
2024-01-07T20:51:46.664Z,82.32
2024-01-07T20:57:07.700Z,82.21
2024-01-07T21:02:29.211Z,82.32
2024-01-07T21:07:50.213Z,82.12
2024-01-07T21:13:11.174Z,82.08
2024-01-07T21:18:32.159Z,82.01
2024-01-07T21:23:52.769Z,82.21
2024-01-07T21:29:14.575Z,82.20
2024-01-07T21:34:39.059Z,82.13
2024-01-07T21:39:59.282Z,82.74
2024-01-07T21:45:20.154Z,82.32
2024-01-07T21:50:40.554Z,82.44
2024-01-07T21:56:01.016Z,82.37
2024-01-07T22:01:21.480Z,82.33
2024-01-07T22:06:42.099Z,82.26
2024-01-07T22:12:03.193Z,82.05
2024-01-07T22:17:24.006Z,82.04
2024-01-07T22:22:44.435Z,82.04
2024-01-07T22:28:05.003Z,81.86
2024-01-07T22:33:25.843Z,81.54
2024-01-07T22:38:46.781Z,81.57
2024-01-07T22:44:07.383Z,81.49
2024-01-07T22:49:27.661Z,81.44
2024-01-07T22:54:48.046Z,81.20
2024-01-07T23:00:12.392Z,81.22
2024-01-07T23:05:37.743Z,81.15
2024-01-07T23:11:01.641Z,81.19
2024-01-07T23:16:22.772Z,81.14
2024-01-07T23:21:43.182Z,81.11
2024-01-07T23:27:03.804Z,80.90
2024-01-07T23:32:27.669Z,81.01
2024-01-07T23:37:48.225Z,81.22
2024-01-07T23:43:09.250Z,81.27
2024-01-07T23:48:31.217Z,81.46
2024-01-07T23:53:51.622Z,81.29
2024-01-07T23:59:12.589Z,81.39
